createdAt,value
2022-11-28T00:00:20.300Z,1015.08
2022-11-28T00:01:20.297Z,1015.07
2022-11-28T00:02:20.453Z,1015.04
2022-11-28T00:03:20.964Z,1015.04
2022-11-28T00:04:20.389Z,1014.98
2022-11-28T00:05:20.244Z,1014.94
2022-11-28T00:06:20.234Z,1014.92
2022-11-28T00:07:20.312Z,1014.94
2022-11-28T00:08:20.212Z,1015.03
2022-11-28T00:09:20.217Z,1014.94
2022-11-28T00:10:20.199Z,1014.93
2022-11-28T00:11:20.179Z,1014.96
2022-11-28T00:12:20.169Z,1014.90
2022-11-28T00:13:20.161Z,1014.86
2022-11-28T00:14:20.162Z,1014.89
2022-11-28T00:15:20.161Z,1014.83
2022-11-28T00:16:20.176Z,1014.86
2022-11-28T00:17:20.117Z,1014.84
2022-11-28T00:18:20.114Z,1014.84
2022-11-28T00:19:20.102Z,1014.77
2022-11-28T00:20:20.194Z,1014.78
2022-11-28T00:21:20.086Z,1014.79
2022-11-28T00:22:20.073Z,1014.83
2022-11-28T00:23:20.049Z,1014.77
2022-11-28T00:24:20.049Z,1014.81
2022-11-28T00:25:20.039Z,1014.78
2022-11-28T00:26:20.041Z,1014.80
2022-11-28T00:27:20.020Z,1014.79
2022-11-28T00:28:20.004Z,1014.77
2022-11-28T00:29:19.996Z,1014.78
2022-11-28T00:30:19.982Z,1014.76
2022-11-28T00:31:20.049Z,1014.75
2022-11-28T00:32:19.956Z,1014.77
2022-11-28T00:33:19.945Z,1014.72
2022-11-28T00:34:19.944Z,1014.72
2022-11-28T00:35:19.920Z,1014.67
2022-11-28T00:36:20.043Z,1014.64
2022-11-28T00:37:19.917Z,1014.68
2022-11-28T00:38:19.899Z,1014.70
2022-11-28T00:39:19.901Z,1014.63
2022-11-28T00:40:19.870Z,1014.64
2022-11-28T00:41:19.863Z,1014.68
2022-11-28T00:42:19.884Z,1014.62
2022-11-28T00:43:19.850Z,1014.60
2022-11-28T00:44:19.829Z,1014.66
2022-11-28T00:45:19.826Z,1014.68
2022-11-28T00:46:19.935Z,1014.66
2022-11-28T00:47:19.802Z,1014.62
2022-11-28T00:48:19.804Z,1014.70
2022-11-28T00:49:19.797Z,1014.69
2022-11-28T00:50:19.783Z,1014.68
2022-11-28T00:51:19.759Z,1014.67
2022-11-28T00:52:19.863Z,1014.62
2022-11-28T00:53:19.738Z,1014.63
2022-11-28T00:54:19.740Z,1014.62
2022-11-28T00:55:19.714Z,1014.64
2022-11-28T00:56:19.702Z,1014.62
2022-11-28T00:57:19.690Z,1014.58
2022-11-28T00:58:19.681Z,1014.56
2022-11-28T00:59:19.693Z,1014.57
2022-11-28T01:00:19.662Z,1014.53
2022-11-28T01:01:19.700Z,1014.56
2022-11-28T01:02:19.735Z,1014.56
2022-11-28T01:03:19.637Z,1014.52
2022-11-28T01:04:19.642Z,1014.51
2022-11-28T01:05:19.616Z,1014.50
2022-11-28T01:06:19.619Z,1014.55
2022-11-28T01:07:19.658Z,1014.54
2022-11-28T01:08:19.677Z,1014.44
2022-11-28T01:09:19.642Z,1014.44
2022-11-28T01:10:19.550Z,1014.39
2022-11-28T01:11:19.538Z,1014.34
2022-11-28T01:12:19.547Z,1014.37
2022-11-28T01:13:19.525Z,1014.42
2022-11-28T01:14:19.519Z,1014.33
2022-11-28T01:15:19.510Z,1014.38
2022-11-28T01:16:19.547Z,1014.36
2022-11-28T01:17:19.482Z,1014.29
2022-11-28T01:18:19.465Z,1014.36
2022-11-28T01:19:19.458Z,1014.25
2022-11-28T01:20:19.471Z,1014.26
2022-11-28T01:21:19.432Z,1014.29
2022-11-28T01:22:19.428Z,1014.21
2022-11-28T01:23:19.415Z,1014.28
2022-11-28T01:24:19.518Z,1014.24
2022-11-28T01:25:19.415Z,1014.24
2022-11-28T01:26:19.419Z,1014.21
2022-11-28T01:27:19.376Z,1014.19
2022-11-28T01:28:19.360Z,1014.19
2022-11-28T01:29:19.351Z,1014.20
2022-11-28T01:30:19.349Z,1014.16
2022-11-28T01:31:19.389Z,1014.18
2022-11-28T01:32:19.324Z,1014.10
2022-11-28T01:33:19.309Z,1014.15
2022-11-28T01:34:19.304Z,1014.12
2022-11-28T01:35:19.281Z,1014.11
2022-11-28T01:36:19.273Z,1014.09
2022-11-28T01:37:19.274Z,1014.07
2022-11-28T01:38:19.252Z,1014.09
2022-11-28T01:39:19.246Z,1014.09
2022-11-28T01:40:19.338Z,1014.08
2022-11-28T01:41:19.219Z,1014.11
2022-11-28T01:42:19.225Z,1014.09
2022-11-28T01:43:19.199Z,1014.07
2022-11-28T01:44:19.219Z,1014.09
2022-11-28T01:45:19.182Z,1014.01
2022-11-28T01:46:19.271Z,1014.04
2022-11-28T01:47:19.152Z,1014.00
2022-11-28T01:48:19.159Z,1013.94
2022-11-28T01:49:19.130Z,1013.97
2022-11-28T01:50:19.121Z,1013.96
2022-11-28T01:51:19.925Z,1013.94
2022-11-28T01:52:19.109Z,1013.95
2022-11-28T01:53:19.112Z,1013.93
2022-11-28T01:54:19.087Z,1013.94
2022-11-28T01:55:19.077Z,1013.96
2022-11-28T01:56:19.165Z,1013.97
2022-11-28T01:57:19.047Z,1013.93
2022-11-28T01:58:19.052Z,1013.96
2022-11-28T01:59:19.026Z,1013.95
2022-11-28T02:00:19.015Z,1013.94
2022-11-28T02:01:19.105Z,1013.95
2022-11-28T02:02:19.072Z,1013.97
2022-11-28T02:03:18.980Z,1013.94
2022-11-28T02:04:18.990Z,1013.89
2022-11-28T02:05:18.980Z,1013.85
2022-11-28T02:06:18.948Z,1013.81
2022-11-28T02:07:18.973Z,1013.82
2022-11-28T02:08:18.937Z,1013.84
2022-11-28T02:09:18.921Z,1013.78
2022-11-28T02:10:18.928Z,1013.81
2022-11-28T02:11:18.900Z,1013.81
2022-11-28T02:12:24.815Z,1013.73
2022-11-28T02:13:19.994Z,1013.73
2022-11-28T02:14:18.865Z,1013.75
2022-11-28T02:15:18.854Z,1013.72
2022-11-28T02:16:18.955Z,1013.77
2022-11-28T02:17:18.839Z,1013.75
2022-11-28T02:18:18.823Z,1013.66
2022-11-28T02:19:18.814Z,1013.72
2022-11-28T02:20:18.801Z,1013.67
2022-11-28T02:21:18.802Z,1013.74
2022-11-28T02:22:18.784Z,1013.68
2022-11-28T02:23:18.772Z,1013.66
2022-11-28T02:24:18.763Z,1013.64
2022-11-28T02:25:18.751Z,1013.65
2022-11-28T02:26:18.742Z,1013.57
2022-11-28T02:27:18.745Z,1013.66
2022-11-28T02:28:18.716Z,1013.53
2022-11-28T02:29:18.823Z,1013.50
2022-11-28T02:30:18.701Z,1013.59
2022-11-28T02:31:18.776Z,1013.57
2022-11-28T02:32:18.735Z,1013.57
2022-11-28T02:33:18.676Z,1013.60
2022-11-28T02:34:18.654Z,1013.70
2022-11-28T02:35:18.655Z,1013.61
2022-11-28T02:36:18.643Z,1013.59
2022-11-28T02:37:18.648Z,1013.53
2022-11-28T02:38:18.614Z,1013.52
2022-11-28T02:39:18.606Z,1013.52
2022-11-28T02:40:18.598Z,1013.54
2022-11-28T02:41:18.576Z,1013.50
2022-11-28T02:42:18.571Z,1013.47
2022-11-28T02:43:18.577Z,1013.46
2022-11-28T02:44:18.566Z,1013.48
2022-11-28T02:45:18.643Z,1013.53
2022-11-28T02:46:18.611Z,1013.48
2022-11-28T02:47:18.509Z,1013.55
2022-11-28T02:48:18.502Z,1013.49
2022-11-28T02:49:18.492Z,1013.54
2022-11-28T02:50:18.517Z,1013.45
2022-11-28T02:51:18.481Z,1013.45
2022-11-28T02:52:18.466Z,1013.45
2022-11-28T02:53:18.447Z,1013.45
2022-11-28T02:54:18.444Z,1013.43
2022-11-28T02:55:18.440Z,1013.40
2022-11-28T02:56:18.422Z,1013.43
2022-11-28T02:57:18.419Z,1013.38
2022-11-28T02:58:18.409Z,1013.36
2022-11-28T02:59:18.395Z,1013.34
2022-11-28T03:00:18.375Z,1013.33
2022-11-28T03:01:18.578Z,1013.34
2022-11-28T03:02:18.409Z,1013.27
2022-11-28T03:03:18.342Z,1013.25
2022-11-28T03:04:18.496Z,1013.28
2022-11-28T03:05:18.319Z,1013.24
2022-11-28T03:06:18.314Z,1013.21
2022-11-28T03:07:18.366Z,1013.21
2022-11-28T03:08:18.289Z,1013.20
2022-11-28T03:09:18.287Z,1013.20
2022-11-28T03:10:18.262Z,1013.25
2022-11-28T03:11:18.272Z,1013.20
2022-11-28T03:12:18.408Z,1013.19
2022-11-28T03:13:18.242Z,1013.17
2022-11-28T03:14:18.232Z,1013.18
2022-11-28T03:15:18.225Z,1013.15
2022-11-28T03:16:18.290Z,1013.17
2022-11-28T03:17:18.300Z,1013.23
2022-11-28T03:18:18.204Z,1013.18
2022-11-28T03:19:18.181Z,1013.21
2022-11-28T03:20:18.166Z,1013.21
2022-11-28T03:21:18.161Z,1013.20
2022-11-28T03:22:18.147Z,1013.19
2022-11-28T03:23:18.141Z,1013.17
2022-11-28T03:24:18.127Z,1013.15
2022-11-28T03:25:18.116Z,1013.09
2022-11-28T03:26:18.096Z,1013.14
2022-11-28T03:27:18.092Z,1013.15
2022-11-28T03:28:18.097Z,1013.13
2022-11-28T03:29:18.072Z,1013.11
2022-11-28T03:30:18.072Z,1013.12
2022-11-28T03:31:18.095Z,1013.14
2022-11-28T03:32:18.043Z,1013.14
2022-11-28T03:33:18.130Z,1013.10
2022-11-28T03:34:18.059Z,1013.11
2022-11-28T03:35:18.004Z,1013.11
2022-11-28T03:36:17.996Z,1013.08
2022-11-28T03:37:17.985Z,1013.12
2022-11-28T03:38:17.978Z,1013.09
2022-11-28T03:39:17.966Z,1013.13
2022-11-28T03:40:17.971Z,1013.10
2022-11-28T03:41:17.941Z,1013.11
2022-11-28T03:42:17.923Z,1013.04
2022-11-28T03:43:17.925Z,1013.06
2022-11-28T03:44:17.914Z,1013.08
2022-11-28T03:45:17.922Z,1013.02
2022-11-28T03:46:17.966Z,1013.00
2022-11-28T03:47:17.873Z,1013.02
2022-11-28T03:48:17.906Z,1013.07
2022-11-28T03:49:17.969Z,1013.06
2022-11-28T03:50:17.847Z,1013.01
2022-11-28T03:51:17.854Z,1013.02
2022-11-28T03:52:17.820Z,1012.99
2022-11-28T03:53:17.828Z,1012.99
2022-11-28T03:54:17.827Z,1012.99
2022-11-28T03:55:17.861Z,1012.97
2022-11-28T03:56:17.796Z,1012.95
2022-11-28T03:57:17.779Z,1012.96
2022-11-28T03:58:17.764Z,1012.99
2022-11-28T03:59:17.752Z,1013.03
2022-11-28T04:00:17.742Z,1012.95
2022-11-28T04:01:17.777Z,1012.96
2022-11-28T04:02:17.720Z,1012.99
2022-11-28T04:03:17.838Z,1012.99
2022-11-28T04:04:17.700Z,1012.99
2022-11-28T04:05:17.794Z,1013.03
2022-11-28T04:06:17.677Z,1012.98
2022-11-28T04:07:17.695Z,1012.96
2022-11-28T04:08:17.654Z,1012.99
2022-11-28T04:09:17.644Z,1012.91
2022-11-28T04:10:17.637Z,1012.89
2022-11-28T04:11:17.629Z,1012.87
2022-11-28T04:12:17.625Z,1012.88
2022-11-28T04:13:17.623Z,1012.87
2022-11-28T04:14:17.594Z,1012.84
2022-11-28T04:15:17.575Z,1012.76
2022-11-28T04:16:17.613Z,1012.77
2022-11-28T04:17:17.553Z,1012.82
2022-11-28T04:18:17.551Z,1012.80
2022-11-28T04:19:17.554Z,1012.77
2022-11-28T04:20:17.548Z,1012.82
2022-11-28T04:21:17.629Z,1012.80
2022-11-28T04:22:17.502Z,1012.79
2022-11-28T04:23:17.509Z,1012.80
2022-11-28T04:24:17.485Z,1012.78
2022-11-28T04:25:17.467Z,1012.76
2022-11-28T04:26:17.488Z,1012.82
2022-11-28T04:27:17.460Z,1012.86
2022-11-28T04:28:17.441Z,1012.78
2022-11-28T04:29:17.471Z,1012.86
2022-11-28T04:30:17.422Z,1012.78
2022-11-28T04:31:17.459Z,1012.78
2022-11-28T04:32:17.399Z,1012.78
2022-11-28T04:33:17.383Z,1012.76
2022-11-28T04:34:17.371Z,1012.75
2022-11-28T04:35:17.382Z,1012.78
2022-11-28T04:36:17.350Z,1012.74
2022-11-28T04:37:17.453Z,1012.73
2022-11-28T04:38:17.342Z,1012.71
2022-11-28T04:39:17.328Z,1012.70
2022-11-28T04:40:17.313Z,1012.70
2022-11-28T04:41:17.321Z,1012.68
2022-11-28T04:42:17.293Z,1012.66
2022-11-28T04:43:17.289Z,1012.71
2022-11-28T04:44:17.265Z,1012.69
2022-11-28T04:45:17.254Z,1012.69
2022-11-28T04:46:17.338Z,1012.66
2022-11-28T04:47:17.243Z,1012.65
2022-11-28T04:48:17.334Z,1012.62
2022-11-28T04:49:17.214Z,1012.59
2022-11-28T04:50:17.210Z,1012.61
2022-11-28T04:51:17.241Z,1012.58
2022-11-28T04:52:17.181Z,1012.60
2022-11-28T04:53:17.282Z,1012.60
2022-11-28T04:54:17.161Z,1012.61
2022-11-28T04:55:17.160Z,1012.61
2022-11-28T04:56:17.146Z,1012.61
2022-11-28T04:57:17.150Z,1012.59
2022-11-28T04:58:17.119Z,1012.61
2022-11-28T04:59:17.115Z,1012.66
2022-11-28T05:00:17.110Z,1012.62
2022-11-28T05:01:17.136Z,1012.63
2022-11-28T05:02:17.164Z,1012.63
2022-11-28T05:03:17.071Z,1012.66
2022-11-28T05:04:17.051Z,1012.66
2022-11-28T05:05:17.079Z,1012.66
2022-11-28T05:06:17.031Z,1012.65
2022-11-28T05:07:17.099Z,1012.63
2022-11-28T05:08:17.011Z,1012.62
2022-11-28T05:09:17.114Z,1012.63
2022-11-28T05:10:17.008Z,1012.68
2022-11-28T05:11:16.984Z,1012.72
2022-11-28T05:12:16.979Z,1012.70
2022-11-28T05:13:16.968Z,1012.70
2022-11-28T05:14:16.955Z,1012.62
2022-11-28T05:15:16.935Z,1012.69
2022-11-28T05:16:16.990Z,1012.68
2022-11-28T05:17:16.922Z,1012.62
2022-11-28T05:18:16.900Z,1012.63
2022-11-28T05:19:17.136Z,1012.61
2022-11-28T05:20:16.881Z,1012.63
2022-11-28T05:21:16.883Z,1012.61
2022-11-28T05:22:16.868Z,1012.60
2022-11-28T05:23:16.961Z,1012.58
2022-11-28T05:24:16.850Z,1012.57
2022-11-28T05:25:16.963Z,1012.65
2022-11-28T05:26:16.819Z,1012.58
2022-11-28T05:27:16.817Z,1012.57
2022-11-28T05:28:16.799Z,1012.56
2022-11-28T05:29:16.786Z,1012.55
2022-11-28T05:30:16.790Z,1012.57
2022-11-28T05:31:16.788Z,1012.55
2022-11-28T05:32:16.761Z,1012.63
2022-11-28T05:33:16.749Z,1012.52
2022-11-28T05:34:16.740Z,1012.55
2022-11-28T05:35:16.810Z,1012.58
2022-11-28T05:36:16.725Z,1012.56
2022-11-28T05:37:16.700Z,1012.52
2022-11-28T05:38:16.695Z,1012.51
2022-11-28T05:39:16.688Z,1012.50
2022-11-28T05:40:16.678Z,1012.47
2022-11-28T05:41:16.798Z,1012.50
2022-11-28T05:42:16.650Z,1012.44
2022-11-28T05:43:16.637Z,1012.49
2022-11-28T05:44:16.628Z,1012.45
2022-11-28T05:45:16.626Z,1012.47
2022-11-28T05:46:16.674Z,1012.46
2022-11-28T05:47:16.610Z,1012.39
2022-11-28T05:48:16.592Z,1012.53
2022-11-28T05:49:16.570Z,1012.39
2022-11-28T05:50:16.570Z,1012.34
2022-11-28T05:51:16.552Z,1012.38
2022-11-28T05:52:16.558Z,1012.38
2022-11-28T05:53:16.537Z,1012.39
2022-11-28T05:54:16.520Z,1012.37
2022-11-28T05:55:16.514Z,1012.32
2022-11-28T05:56:16.499Z,1012.33
2022-11-28T05:57:16.602Z,1012.31
2022-11-28T05:58:16.503Z,1012.34
2022-11-28T05:59:16.476Z,1012.30
2022-11-28T06:00:16.453Z,1012.29
2022-11-28T06:01:16.458Z,1012.29
2022-11-28T06:02:16.518Z,1012.29
2022-11-28T06:03:16.433Z,1012.26
2022-11-28T06:04:16.511Z,1012.23
2022-11-28T06:05:40.847Z,1012.22
2022-11-28T06:06:17.391Z,1012.16
2022-11-28T06:07:16.461Z,1012.24
2022-11-28T06:08:16.372Z,1012.22
2022-11-28T06:09:16.382Z,1012.19
2022-11-28T06:10:16.364Z,1012.13
2022-11-28T06:11:16.347Z,1012.16
2022-11-28T06:12:16.348Z,1012.16
2022-11-28T06:13:16.439Z,1012.14
2022-11-28T06:14:16.313Z,1012.13
2022-11-28T06:15:16.316Z,1012.11
2022-11-28T06:16:16.366Z,1012.14
2022-11-28T06:17:16.278Z,1012.05
2022-11-28T06:18:16.267Z,1012.05
2022-11-28T06:19:16.288Z,1012.08
2022-11-28T06:20:16.247Z,1012.04
2022-11-28T06:21:16.245Z,1012.02
2022-11-28T06:22:16.234Z,1011.98
2022-11-28T06:23:16.222Z,1012.02
2022-11-28T06:24:16.199Z,1012.05
2022-11-28T06:25:16.200Z,1012.01
2022-11-28T06:26:16.188Z,1012.00
2022-11-28T06:27:16.175Z,1012.04
2022-11-28T06:28:16.162Z,1012.04
2022-11-28T06:29:16.341Z,1012.02
2022-11-28T06:30:16.156Z,1011.97
2022-11-28T06:31:16.177Z,1011.93
2022-11-28T06:32:20.533Z,1011.97
2022-11-28T06:33:17.114Z,1011.95
2022-11-28T06:34:16.124Z,1011.96
2022-11-28T06:35:16.104Z,1011.97
2022-11-28T06:36:16.093Z,1012.00
2022-11-28T06:37:16.058Z,1011.94
2022-11-28T06:38:16.047Z,1011.91
2022-11-28T06:39:16.050Z,1011.95
2022-11-28T06:40:16.037Z,1011.96
2022-11-28T06:41:16.035Z,1011.94
2022-11-28T06:42:16.032Z,1012.00
2022-11-28T06:43:15.998Z,1011.94
2022-11-28T06:44:15.997Z,1012.00
2022-11-28T06:45:16.093Z,1012.01
2022-11-28T06:46:16.777Z,1011.92
2022-11-28T06:47:15.974Z,1011.91
2022-11-28T06:48:15.970Z,1011.95
2022-11-28T06:49:15.936Z,1012.03
2022-11-28T06:50:15.956Z,1011.97
2022-11-28T06:51:15.915Z,1011.92
2022-11-28T06:52:15.936Z,1011.99
2022-11-28T06:53:15.891Z,1012.01
2022-11-28T06:54:15.886Z,1012.05
2022-11-28T06:55:15.880Z,1011.99
2022-11-28T06:56:15.870Z,1012.01
2022-11-28T06:57:15.860Z,1011.99
2022-11-28T06:58:15.860Z,1011.99
2022-11-28T06:59:15.836Z,1011.98
2022-11-28T07:00:15.830Z,1012.06
2022-11-28T07:01:16.012Z,1012.01
2022-11-28T07:02:15.880Z,1012.03
2022-11-28T07:03:15.805Z,1011.96
2022-11-28T07:04:15.804Z,1012.00
2022-11-28T07:05:15.771Z,1011.99
2022-11-28T07:06:15.800Z,1011.99
2022-11-28T07:07:16.817Z,1011.98
2022-11-28T07:08:15.815Z,1012.05
2022-11-28T07:09:15.727Z,1012.07
2022-11-28T07:10:15.722Z,1012.06
2022-11-28T07:11:15.706Z,1012.03
2022-11-28T07:12:15.697Z,1011.99
2022-11-28T07:13:15.685Z,1011.99
2022-11-28T07:14:15.690Z,1012.00
2022-11-28T07:15:15.666Z,1012.03
2022-11-28T07:16:15.747Z,1011.97
2022-11-28T07:17:15.765Z,1012.02
2022-11-28T07:18:25.050Z,1011.99
2022-11-28T07:19:15.617Z,1011.97
2022-11-28T07:20:15.621Z,1012.01
2022-11-28T07:21:15.599Z,1011.98
2022-11-28T07:22:15.585Z,1011.98
2022-11-28T07:23:15.591Z,1011.96
2022-11-28T07:24:15.583Z,1011.96
2022-11-28T07:25:15.559Z,1011.94
2022-11-28T07:26:15.561Z,1011.88
2022-11-28T07:27:15.532Z,1011.95
2022-11-28T07:28:18.429Z,1011.94
2022-11-28T07:29:16.586Z,1011.89
2022-11-28T07:30:15.540Z,1011.95
2022-11-28T07:31:15.628Z,1011.96
2022-11-28T07:32:15.489Z,1011.94
2022-11-28T07:33:15.513Z,1011.99
2022-11-28T07:34:15.490Z,1012.00
2022-11-28T07:35:15.484Z,1011.92
2022-11-28T07:36:15.487Z,1011.94
2022-11-28T07:37:15.445Z,1011.94
2022-11-28T07:38:15.474Z,1011.88
2022-11-28T07:39:15.438Z,1011.91
2022-11-28T07:40:15.504Z,1011.90
2022-11-28T07:41:15.438Z,1011.91
2022-11-28T07:42:15.394Z,1011.88
2022-11-28T07:43:15.373Z,1011.90
2022-11-28T07:44:15.388Z,1011.91
2022-11-28T07:45:15.369Z,1011.93
2022-11-28T07:46:15.400Z,1011.92
2022-11-28T07:47:15.357Z,1011.95
2022-11-28T07:48:15.321Z,1011.92
2022-11-28T07:49:15.326Z,1011.90
2022-11-28T07:50:15.313Z,1011.81
2022-11-28T07:51:15.289Z,1011.87
2022-11-28T07:52:15.286Z,1011.85
2022-11-28T07:53:15.297Z,1011.88
2022-11-28T07:54:15.282Z,1011.84
2022-11-28T07:55:15.252Z,1011.81
2022-11-28T07:56:15.250Z,1011.78
2022-11-28T07:57:15.279Z,1011.84
2022-11-28T07:58:15.214Z,1011.80
2022-11-28T07:59:15.213Z,1011.81
2022-11-28T08:00:15.214Z,1011.84
2022-11-28T08:01:15.242Z,1011.86
2022-11-28T08:02:15.301Z,1011.84
2022-11-28T08:03:15.160Z,1011.85
2022-11-28T08:04:15.234Z,1011.82
2022-11-28T08:05:15.270Z,1011.82
2022-11-28T08:06:15.124Z,1011.85
2022-11-28T08:07:15.324Z,1011.83
2022-11-28T08:08:15.121Z,1011.88
2022-11-28T08:09:15.122Z,1011.80
2022-11-28T08:10:15.133Z,1011.79
2022-11-28T08:11:15.073Z,1011.83
2022-11-28T08:12:15.069Z,1011.79
2022-11-28T08:13:15.083Z,1011.79
2022-11-28T08:14:15.064Z,1011.78
2022-11-28T08:15:15.034Z,1011.76
2022-11-28T08:16:15.115Z,1011.82
2022-11-28T08:17:15.019Z,1011.79
2022-11-28T08:18:15.002Z,1011.76
2022-11-28T08:19:14.976Z,1011.71
2022-11-28T08:20:15.036Z,1011.70
2022-11-28T08:21:15.003Z,1011.69
2022-11-28T08:22:14.989Z,1011.67
2022-11-28T08:23:14.983Z,1011.66
2022-11-28T08:24:14.947Z,1011.71
2022-11-28T08:25:14.944Z,1011.67
2022-11-28T08:26:14.921Z,1011.70
2022-11-28T08:27:14.900Z,1011.70
2022-11-28T08:28:14.903Z,1011.67
2022-11-28T08:29:14.914Z,1011.60
2022-11-28T08:30:14.886Z,1011.59
2022-11-28T08:31:14.963Z,1011.63
2022-11-28T08:32:14.856Z,1011.58
2022-11-28T08:33:14.850Z,1011.59
2022-11-28T08:34:14.848Z,1011.56
2022-11-28T08:35:14.811Z,1011.52
2022-11-28T08:36:14.811Z,1011.57
2022-11-28T08:37:14.817Z,1011.57
2022-11-28T08:38:14.792Z,1011.57
2022-11-28T08:39:30.057Z,1011.51
2022-11-28T08:40:15.775Z,1011.55
2022-11-28T08:41:14.754Z,1011.60
2022-11-28T08:42:14.748Z,1011.58
2022-11-28T08:43:14.742Z,1011.64
2022-11-28T08:44:14.735Z,1011.56
2022-11-28T08:45:14.756Z,1011.61
2022-11-28T08:46:14.723Z,1011.60
2022-11-28T08:47:14.714Z,1011.58
2022-11-28T08:48:14.685Z,1011.59
2022-11-28T08:49:14.692Z,1011.67
2022-11-28T08:50:14.667Z,1011.63
2022-11-28T08:51:14.651Z,1011.66
2022-11-28T08:52:14.667Z,1011.68
2022-11-28T08:53:18.425Z,1011.68
2022-11-28T08:54:14.629Z,1011.69
2022-11-28T08:55:15.116Z,1011.74
2022-11-28T08:56:14.596Z,1011.80
2022-11-28T08:57:14.607Z,1011.72
2022-11-28T08:58:14.615Z,1011.70
2022-11-28T08:59:14.602Z,1011.69
2022-11-28T09:00:14.603Z,1011.70
2022-11-28T09:01:14.647Z,1011.62
2022-11-28T09:02:14.547Z,1011.64
2022-11-28T09:03:14.529Z,1011.65
2022-11-28T09:04:14.594Z,1011.58
2022-11-28T09:05:14.557Z,1011.60
2022-11-28T09:06:14.514Z,1011.66
2022-11-28T09:07:14.596Z,1011.64
2022-11-28T09:08:14.483Z,1011.66
2022-11-28T09:09:14.482Z,1011.64
2022-11-28T09:10:14.493Z,1011.69
2022-11-28T09:11:14.460Z,1011.67
2022-11-28T09:12:14.436Z,1011.74
2022-11-28T09:13:14.429Z,1011.76
2022-11-28T09:14:14.402Z,1011.73
2022-11-28T09:15:14.392Z,1011.80
2022-11-28T09:16:14.704Z,1011.79
2022-11-28T09:17:14.519Z,1011.77
2022-11-28T09:18:14.361Z,1011.76
2022-11-28T09:19:14.387Z,1011.70
2022-11-28T09:20:14.342Z,1011.76
2022-11-28T09:21:14.366Z,1011.74
2022-11-28T09:22:14.344Z,1011.72
2022-11-28T09:23:14.318Z,1011.71
2022-11-28T09:24:14.323Z,1011.80
2022-11-28T09:25:14.353Z,1011.77
2022-11-28T09:26:14.277Z,1011.73
2022-11-28T09:27:14.280Z,1011.74
2022-11-28T09:28:14.289Z,1011.68
2022-11-28T09:29:14.256Z,1011.69
2022-11-28T09:30:14.257Z,1011.66
2022-11-28T09:31:14.365Z,1011.72
2022-11-28T09:32:14.219Z,1011.68
2022-11-28T09:33:14.219Z,1011.71
2022-11-28T09:34:14.188Z,1011.73
2022-11-28T09:35:14.211Z,1011.67
2022-11-28T09:36:14.225Z,1011.70
2022-11-28T09:37:14.173Z,1011.72
2022-11-28T09:38:14.155Z,1011.72
2022-11-28T09:39:14.198Z,1011.65
2022-11-28T09:40:14.342Z,1011.65
2022-11-28T09:41:14.166Z,1011.67
2022-11-28T09:42:14.125Z,1011.69
2022-11-28T09:43:14.118Z,1011.55
2022-11-28T09:44:14.176Z,1011.54
2022-11-28T09:45:14.090Z,1011.53
2022-11-28T09:46:14.144Z,1011.55
2022-11-28T09:47:14.090Z,1011.55
2022-11-28T09:48:14.115Z,1011.54
2022-11-28T09:49:14.114Z,1011.53
2022-11-28T09:50:14.093Z,1011.49
2022-11-28T09:51:14.021Z,1011.46
2022-11-28T09:52:14.073Z,1011.52
2022-11-28T09:53:14.014Z,1011.50
2022-11-28T09:54:14.021Z,1011.51
2022-11-28T09:55:14.035Z,1011.43
2022-11-28T09:56:14.006Z,1011.38
2022-11-28T09:57:13.998Z,1011.38
2022-11-28T09:58:13.973Z,1011.41
2022-11-28T09:59:13.963Z,1011.37
2022-11-28T10:00:13.943Z,1011.28
2022-11-28T10:01:13.938Z,1011.32
2022-11-28T10:02:13.904Z,1011.31
2022-11-28T10:03:13.977Z,1011.36
2022-11-28T10:04:15.703Z,1011.31
2022-11-28T10:05:13.957Z,1011.31
2022-11-28T10:06:13.848Z,1011.31
2022-11-28T10:07:13.981Z,1011.34
2022-11-28T10:08:13.847Z,1011.36
2022-11-28T10:09:13.824Z,1011.38
2022-11-28T10:10:13.825Z,1011.49
2022-11-28T10:11:13.824Z,1011.38
2022-11-28T10:12:13.785Z,1011.40
2022-11-28T10:13:13.778Z,1011.34
2022-11-28T10:14:13.778Z,1011.38
2022-11-28T10:15:13.787Z,1011.37
2022-11-28T10:16:13.889Z,1011.51
2022-11-28T10:17:13.810Z,1011.54
2022-11-28T10:18:13.736Z,1011.47
2022-11-28T10:19:31.578Z,1011.45
2022-11-28T10:20:14.712Z,1011.44
2022-11-28T10:21:13.714Z,1011.58
2022-11-28T10:22:13.680Z,1011.45
2022-11-28T10:23:13.686Z,1011.49
2022-11-28T10:24:13.698Z,1011.49
2022-11-28T10:25:13.648Z,1011.44
2022-11-28T10:26:13.641Z,1011.45
2022-11-28T10:27:13.711Z,1011.44
2022-11-28T10:28:13.644Z,1011.42
2022-11-28T10:29:13.630Z,1011.48
2022-11-28T10:30:13.663Z,1011.51
2022-11-28T10:31:13.667Z,1011.53
2022-11-28T10:32:13.591Z,1011.40
2022-11-28T10:33:13.633Z,1011.48
2022-11-28T10:34:13.553Z,1011.41
2022-11-28T10:35:13.536Z,1011.33
2022-11-28T10:36:13.528Z,1011.34
2022-11-28T10:37:13.540Z,1011.34
2022-11-28T10:38:13.559Z,1011.34
2022-11-28T10:39:13.512Z,1011.29
2022-11-28T10:40:14.061Z,1011.27
2022-11-28T10:41:13.485Z,1011.30
2022-11-28T10:42:13.522Z,1011.25
2022-11-28T10:43:14.074Z,1011.19
2022-11-28T10:44:18.419Z,1011.19
2022-11-28T10:45:13.466Z,1011.13
2022-11-28T10:46:13.510Z,1011.20
2022-11-28T10:47:14.564Z,1011.16
2022-11-28T10:48:38.679Z,1011.20
2022-11-28T10:49:15.121Z,1011.24
2022-11-28T10:50:13.407Z,1011.15
2022-11-28T10:51:13.396Z,1011.26
2022-11-28T10:52:13.413Z,1011.22
2022-11-28T10:53:13.490Z,1011.18
2022-11-28T10:54:13.380Z,1011.17
2022-11-28T10:55:13.463Z,1011.20
2022-11-28T10:56:13.325Z,1011.13
2022-11-28T10:57:13.367Z,1011.12
2022-11-28T10:58:13.363Z,1011.07
2022-11-28T10:59:13.320Z,1011.13
2022-11-28T11:00:13.313Z,1011.08
2022-11-28T11:01:13.367Z,1011.10
2022-11-28T11:02:13.263Z,1011.04
2022-11-28T11:03:13.243Z,1011.09
2022-11-28T11:04:13.331Z,1011.12
2022-11-28T11:05:13.287Z,1011.11
2022-11-28T11:06:13.330Z,1011.04
2022-11-28T11:07:17.975Z,1011.03
2022-11-28T11:08:14.292Z,1011.01
2022-11-28T11:09:13.226Z,1010.96
2022-11-28T11:10:13.235Z,1010.99
2022-11-28T11:11:13.184Z,1010.97
2022-11-28T11:12:13.151Z,1010.99
2022-11-28T11:13:13.175Z,1010.92
2022-11-28T11:14:13.135Z,1011.01
2022-11-28T11:15:13.194Z,1010.96
2022-11-28T11:16:13.278Z,1011.02
2022-11-28T11:17:13.100Z,1011.02
2022-11-28T11:18:13.102Z,1010.99
2022-11-28T11:19:13.120Z,1010.97
2022-11-28T11:20:13.067Z,1011.01
2022-11-28T11:21:13.419Z,1011.01
2022-11-28T11:22:13.174Z,1010.98
2022-11-28T11:23:13.032Z,1010.97
2022-11-28T11:24:13.070Z,1010.97
2022-11-28T11:25:13.038Z,1010.95
2022-11-28T11:26:13.036Z,1011.00
2022-11-28T11:27:13.633Z,1011.03
2022-11-28T11:28:12.988Z,1011.02
2022-11-28T11:29:13.001Z,1010.96
2022-11-28T11:30:13.026Z,1010.95
2022-11-28T11:31:13.015Z,1010.97
2022-11-28T11:32:12.942Z,1010.95
2022-11-28T11:33:13.071Z,1011.00
2022-11-28T11:34:12.947Z,1010.96
2022-11-28T11:35:12.920Z,1010.98
2022-11-28T11:36:12.882Z,1010.96
2022-11-28T11:37:12.889Z,1010.99
2022-11-28T11:38:12.891Z,1010.92
2022-11-28T11:39:12.942Z,1010.97
2022-11-28T11:40:12.975Z,1010.97
2022-11-28T11:41:12.887Z,1010.99
2022-11-28T11:42:12.829Z,1011.09
2022-11-28T11:43:12.829Z,1011.05
2022-11-28T11:44:12.808Z,1011.01
2022-11-28T11:45:12.874Z,1010.96
2022-11-28T11:46:12.916Z,1010.98
2022-11-28T11:47:12.813Z,1011.05
2022-11-28T11:48:12.761Z,1010.96
2022-11-28T11:49:12.777Z,1010.96
2022-11-28T11:50:12.791Z,1010.93
2022-11-28T11:51:12.756Z,1010.92
2022-11-28T11:52:12.734Z,1010.92
2022-11-28T11:53:12.717Z,1010.91
2022-11-28T11:54:12.693Z,1010.94
2022-11-28T11:55:12.702Z,1010.89
2022-11-28T11:56:12.695Z,1010.90
2022-11-28T11:57:32.002Z,1010.86
2022-11-28T11:58:13.699Z,1010.83
2022-11-28T11:59:12.641Z,1010.90
2022-11-28T12:00:12.679Z,1010.84
2022-11-28T12:01:12.647Z,1010.85
2022-11-28T12:02:12.671Z,1010.81
2022-11-28T12:03:12.817Z,1010.85
2022-11-28T12:04:37.074Z,1010.81
2022-11-28T12:05:13.594Z,1010.87